Terminal Aerodrome Forecast
Issued by NWS

Home | Current Version | Previous Version | Text Only | Print | Product List | Glossary On
Versions: 1 2 3 4 5 6 7 8 9 10 11 12 13 14 15 16 17 18 19 20 21 22 23 24 25 26 27 28 29
000
FTUS41 KOKX 281643 AAB
TAFHPN
TAF AMD
KHPN 281643Z 2817/2912 23010KT P6SM SCT050 BKN250
     FM281900 23010KT P6SM VCTS BKN050CB BKN250
      TEMPO 2819/2822 4SM -TSRA BR
     FM282300 27005KT P6SM BKN050 BKN250
     FM290400 VRB03KT 5SM BR FEW100 BKN250
      AMD NOT SKED=

USA.gov is the U.S. government's official web portal to all federal, state and local government web resources and services.